Kezdőlap
METAR-TAF:

METAR-TAF

Repülőterek :

Savoonga, Alaszka, Amerikai Egyesült Államok

földrajzi szélesség: 63-41N, földrajzi hosszúság: 170-30W, magasság: 16 m

Jelenlegi meteorológiai megfigyelések

A jelentés 8 perccel ezelõtt készült, 08:34 UTC
Keleti szél 19 kt
Hőmérséklet 0°C
Páratartalom 93%
Légköri nyomás 1005 hPa
Látótávolság: 4.8 km
Borult 400 lábon
enyhe havazás, Párásság

METAR: PASA 250834Z AUTO 10019KT 3SM -SN BR OVC004 00/M01 A2967 RMK AO2 UPB24E28SNB28 P0000 FZRANO

Idő: 00:42 (08:42 UTC)


TAF: hiányzik

Meteorológiai megfigyelések és előrejelzések több, mint 4000 repülőtéren (METAR és TAF jelentéseket).

A térképen piros és sárga pontok jelzik az elérhető meteorológiai állomásokat.

Mozgassa az egeret a pont fölött, hogy megjelenjen az állomás neve.

Azután kattintson az időjárási megfigyelések és előrejelzések megtekintéséhez.

A térkép megváltoztatása: kattintson a fekete keresztel jelölt zöld gombra ráközelítéshez, a vonallal jelölt zöld gombra távolításhoz, vagy a zöld nyilakra a szomszédos térképek eléréséhez.


METAR-TAF: